sensor_id;sensor_type;location;lat;lon;timestamp;P1;durP1;ratioP1;P2;durP2;ratioP2
79697;SDS011;69168;42.708;23.286;2024-02-26T00:00:59;30.95;;;17.85;;
79697;SDS011;69168;42.708;23.286;2024-02-26T00:03:24;35.90;;;20.80;;
79697;SDS011;69168;42.708;23.286;2024-02-26T00:05:50;29.35;;;17.90;;
79697;SDS011;69168;42.708;23.286;2024-02-26T00:08:15;27.33;;;15.23;;
79697;SDS011;69168;42.708;23.286;2024-02-26T00:10:41;28.77;;;16.23;;
79697;SDS011;69168;42.708;23.286;2024-02-26T00:13:07;31.58;;;15.68;;
79697;SDS011;69168;42.708;23.286;2024-02-26T00:15:33;29.42;;;16.27;;
79697;SDS011;69168;42.708;23.286;2024-02-26T00:18:00;31.20;;;17.13;;
79697;SDS011;69168;42.708;23.286;2024-02-26T00:20:26;32.22;;;17.35;;
79697;SDS011;69168;42.708;23.286;2024-02-26T00:22:52;29.40;;;16.98;;
79697;SDS011;69168;42.708;23.286;2024-02-26T00:25:17;28.92;;;16.25;;
79697;SDS011;69168;42.708;23.286;2024-02-26T00:27:43;32.08;;;18.08;;
79697;SDS011;69168;42.708;23.286;2024-02-26T00:30:09;30.55;;;17.38;;
79697;SDS011;69168;42.708;23.286;2024-02-26T00:32:35;28.23;;;17.95;;
79697;SDS011;69168;42.708;23.286;2024-02-26T00:35:01;31.35;;;16.95;;
79697;SDS011;69168;42.708;23.286;2024-02-26T00:37:26;22.10;;;14.25;;
79697;SDS011;69168;42.708;23.286;2024-02-26T00:39:52;25.65;;;14.77;;
79697;SDS011;69168;42.708;23.286;2024-02-26T00:42:19;22.88;;;12.88;;
79697;SDS011;69168;42.708;23.286;2024-02-26T00:44:44;27.02;;;14.00;;
79697;SDS011;69168;42.708;23.286;2024-02-26T00:47:10;23.95;;;15.07;;
79697;SDS011;69168;42.708;23.286;2024-02-26T00:49:36;25.95;;;16.02;;
79697;SDS011;69168;42.708;23.286;2024-02-26T00:52:02;26.00;;;15.02;;
79697;SDS011;69168;42.708;23.286;2024-02-26T00:54:28;24.65;;;16.23;;
79697;SDS011;69168;42.708;23.286;2024-02-26T00:56:53;24.20;;;14.70;;
79697;SDS011;69168;42.708;23.286;2024-02-26T00:59:19;24.75;;;13.98;;
79697;SDS011;69168;42.708;23.286;2024-02-26T01:01:44;30.60;;;18.63;;
79697;SDS011;69168;42.708;23.286;2024-02-26T01:04:10;36.00;;;21.65;;
79697;SDS011;69168;42.708;23.286;2024-02-26T01:06:36;34.00;;;21.50;;
79697;SDS011;69168;42.708;23.286;2024-02-26T01:09:02;35.45;;;21.80;;
79697;SDS011;69168;42.708;23.286;2024-02-26T01:11:28;30.40;;;19.25;;
79697;SDS011;69168;42.708;23.286;2024-02-26T01:13:53;25.83;;;15.98;;
79697;SDS011;69168;42.708;23.286;2024-02-26T01:16:21;28.10;;;16.67;;
79697;SDS011;69168;42.708;23.286;2024-02-26T01:18:48;27.77;;;15.45;;
79697;SDS011;69168;42.708;23.286;2024-02-26T01:21:13;24.40;;;15.57;;
79697;SDS011;69168;42.708;23.286;2024-02-26T01:23:39;26.92;;;15.63;;
79697;SDS011;69168;42.708;23.286;2024-02-26T01:26:05;25.92;;;15.13;;
79697;SDS011;69168;42.708;23.286;2024-02-26T01:28:30;27.33;;;14.98;;
79697;SDS011;69168;42.708;23.286;2024-02-26T01:30:56;26.10;;;14.70;;
79697;SDS011;69168;42.708;23.286;2024-02-26T01:33:21;24.95;;;14.77;;
79697;SDS011;69168;42.708;23.286;2024-02-26T01:35:47;26.55;;;14.95;;
79697;SDS011;69168;42.708;23.286;2024-02-26T01:38:13;25.00;;;13.13;;
79697;SDS011;69168;42.708;23.286;2024-02-26T01:40:38;22.40;;;14.10;;
79697;SDS011;69168;42.708;23.286;2024-02-26T01:43:04;21.80;;;13.63;;
79697;SDS011;69168;42.708;23.286;2024-02-26T01:45:29;25.15;;;14.00;;
79697;SDS011;69168;42.708;23.286;2024-02-26T01:47:55;24.55;;;13.82;;
79697;SDS011;69168;42.708;23.286;2024-02-26T01:50:21;19.70;;;13.15;;
79697;SDS011;69168;42.708;23.286;2024-02-26T01:52:48;23.58;;;13.57;;
79697;SDS011;69168;42.708;23.286;2024-02-26T01:55:15;21.38;;;13.88;;
79697;SDS011;69168;42.708;23.286;2024-02-26T01:57:42;24.65;;;13.10;;
79697;SDS011;69168;42.708;23.286;2024-02-26T02:00:09;21.23;;;13.27;;
79697;SDS011;69168;42.708;23.286;2024-02-26T02:02:35;23.15;;;13.95;;
79697;SDS011;69168;42.708;23.286;2024-02-26T02:05:01;24.48;;;13.80;;
79697;SDS011;69168;42.708;23.286;2024-02-26T02:09:54;24.27;;;13.43;;
79697;SDS011;69168;42.708;23.286;2024-02-26T02:12:19;24.38;;;12.98;;
79697;SDS011;69168;42.708;23.286;2024-02-26T02:14:46;24.55;;;13.88;;
79697;SDS011;69168;42.708;23.286;2024-02-26T02:17:12;25.95;;;13.60;;
79697;SDS011;69168;42.708;23.286;2024-02-26T02:19:37;27.20;;;13.98;;
79697;SDS011;69168;42.708;23.286;2024-02-26T02:22:03;23.98;;;13.90;;
79697;SDS011;69168;42.708;23.286;2024-02-26T02:24:28;23.65;;;13.75;;
79697;SDS011;69168;42.708;23.286;2024-02-26T02:26:54;26.73;;;14.70;;
79697;SDS011;69168;42.708;23.286;2024-02-26T02:29:20;23.17;;;13.45;;
79697;SDS011;69168;42.708;23.286;2024-02-26T02:31:46;27.58;;;14.48;;
79697;SDS011;69168;42.708;23.286;2024-02-26T02:34:11;24.38;;;15.57;;
79697;SDS011;69168;42.708;23.286;2024-02-26T02:36:52;24.85;;;14.88;;
79697;SDS011;69168;42.708;23.286;2024-02-26T02:39:19;23.75;;;14.35;;
79697;SDS011;69168;42.708;23.286;2024-02-26T02:41:45;26.42;;;14.88;;
79697;SDS011;69168;42.708;23.286;2024-02-26T02:44:11;23.92;;;15.43;;
79697;SDS011;69168;42.708;23.286;2024-02-26T02:46:36;22.67;;;13.68;;
79697;SDS011;69168;42.708;23.286;2024-02-26T02:49:02;28.17;;;14.57;;
79697;SDS011;69168;42.708;23.286;2024-02-26T02:51:28;25.92;;;14.95;;
79697;SDS011;69168;42.708;23.286;2024-02-26T02:53:53;29.38;;;16.88;;
79697;SDS011;69168;42.708;23.286;2024-02-26T02:56:19;26.02;;;14.90;;
79697;SDS011;69168;42.708;23.286;2024-02-26T02:58:44;26.35;;;14.57;;
79697;SDS011;69168;42.708;23.286;2024-02-26T03:01:10;22.77;;;14.38;;
79697;SDS011;69168;42.708;23.286;2024-02-26T03:03:35;24.00;;;15.02;;
79697;SDS011;69168;42.708;23.286;2024-02-26T03:06:02;25.38;;;15.45;;
79697;SDS011;69168;42.708;23.286;2024-02-26T03:08:28;27.02;;;15.80;;
79697;SDS011;69168;42.708;23.286;2024-02-26T03:10:54;22.40;;;13.52;;
79697;SDS011;69168;42.708;23.286;2024-02-26T03:13:19;27.88;;;15.50;;
79697;SDS011;69168;42.708;23.286;2024-02-26T03:15:45;22.75;;;14.65;;
79697;SDS011;69168;42.708;23.286;2024-02-26T03:18:11;27.92;;;15.57;;
79697;SDS011;69168;42.708;23.286;2024-02-26T03:20:36;23.80;;;14.93;;
79697;SDS011;69168;42.708;23.286;2024-02-26T03:23:02;24.85;;;15.10;;
79697;SDS011;69168;42.708;23.286;2024-02-26T03:25:28;24.55;;;14.73;;
79697;SDS011;69168;42.708;23.286;2024-02-26T03:27:53;26.38;;;14.38;;
79697;SDS011;69168;42.708;23.286;2024-02-26T03:30:19;24.65;;;14.57;;
79697;SDS011;69168;42.708;23.286;2024-02-26T03:32:44;25.95;;;15.25;;
79697;SDS011;69168;42.708;23.286;2024-02-26T03:35:12;29.30;;;15.57;;
79697;SDS011;69168;42.708;23.286;2024-02-26T03:37:37;27.48;;;15.85;;
79697;SDS011;69168;42.708;23.286;2024-02-26T03:40:03;31.02;;;16.17;;
79697;SDS011;69168;42.708;23.286;2024-02-26T03:42:29;25.80;;;15.00;;
79697;SDS011;69168;42.708;23.286;2024-02-26T03:44:54;29.73;;;14.57;;
79697;SDS011;69168;42.708;23.286;2024-02-26T03:47:20;28.45;;;14.38;;
79697;SDS011;69168;42.708;23.286;2024-02-26T03:49:45;31.02;;;15.52;;
79697;SDS011;69168;42.708;23.286;2024-02-26T03:52:11;23.83;;;13.98;;
79697;SDS011;69168;42.708;23.286;2024-02-26T03:54:36;23.58;;;14.15;;
79697;SDS011;69168;42.708;23.286;2024-02-26T03:57:02;23.83;;;14.48;;
79697;SDS011;69168;42.708;23.286;2024-02-26T03:59:28;22.60;;;14.45;;
79697;SDS011;69168;42.708;23.286;2024-02-26T04:01:53;24.75;;;14.40;;
79697;SDS011;69168;42.708;23.286;2024-02-26T04:04:19;26.30;;;14.43;;
79697;SDS011;69168;42.708;23.286;2024-02-26T04:06:47;25.88;;;14.35;;
79697;SDS011;69168;42.708;23.286;2024-02-26T04:09:13;26.50;;;15.05;;
79697;SDS011;69168;42.708;23.286;2024-02-26T04:11:39;24.85;;;15.02;;
79697;SDS011;69168;42.708;23.286;2024-02-26T04:14:05;27.70;;;15.43;;
79697;SDS011;69168;42.708;23.286;2024-02-26T04:16:33;31.20;;;15.35;;
79697;SDS011;69168;42.708;23.286;2024-02-26T04:19:00;23.38;;;13.75;;
79697;SDS011;69168;42.708;23.286;2024-02-26T04:21:26;24.13;;;14.50;;
79697;SDS011;69168;42.708;23.286;2024-02-26T04:23:52;29.33;;;15.88;;
79697;SDS011;69168;42.708;23.286;2024-02-26T04:26:20;29.15;;;15.20;;
79697;SDS011;69168;42.708;23.286;2024-02-26T04:28:46;29.52;;;17.02;;
79697;SDS011;69168;42.708;23.286;2024-02-26T04:31:11;26.85;;;16.17;;
79697;SDS011;69168;42.708;23.286;2024-02-26T04:33:37;31.70;;;17.63;;
79697;SDS011;69168;42.708;23.286;2024-02-26T04:36:03;31.83;;;16.27;;
79697;SDS011;69168;42.708;23.286;2024-02-26T04:38:28;26.70;;;16.05;;
79697;SDS011;69168;42.708;23.286;2024-02-26T04:40:54;28.77;;;17.40;;
79697;SDS011;69168;42.708;23.286;2024-02-26T04:43:19;31.95;;;18.88;;
79697;SDS011;69168;42.708;23.286;2024-02-26T04:45:45;32.15;;;19.50;;
79697;SDS011;69168;42.708;23.286;2024-02-26T04:48:10;33.13;;;19.08;;
79697;SDS011;69168;42.708;23.286;2024-02-26T04:50:36;34.42;;;18.55;;
79697;SDS011;69168;42.708;23.286;2024-02-26T04:53:01;34.47;;;21.13;;
79697;SDS011;69168;42.708;23.286;2024-02-26T04:55:27;34.47;;;18.77;;
79697;SDS011;69168;42.708;23.286;2024-02-26T04:57:53;32.42;;;19.23;;
79697;SDS011;69168;42.708;23.286;2024-02-26T05:00:18;31.80;;;20.05;;
79697;SDS011;69168;42.708;23.286;2024-02-26T05:02:44;29.35;;;17.83;;
79697;SDS011;69168;42.708;23.286;2024-02-26T05:05:09;35.75;;;21.15;;
79697;SDS011;69168;42.708;23.286;2024-02-26T05:07:44;33.47;;;21.33;;
79697;SDS011;69168;42.708;23.286;2024-02-26T05:10:10;36.50;;;21.08;;
79697;SDS011;69168;42.708;23.286;2024-02-26T05:12:36;35.28;;;21.98;;
79697;SDS011;69168;42.708;23.286;2024-02-26T05:15:02;39.13;;;21.77;;
79697;SDS011;69168;42.708;23.286;2024-02-26T05:17:28;38.20;;;22.90;;
79697;SDS011;69168;42.708;23.286;2024-02-26T05:19:53;36.72;;;20.92;;
79697;SDS011;69168;42.708;23.286;2024-02-26T05:22:19;37.20;;;20.73;;
79697;SDS011;69168;42.708;23.286;2024-02-26T05:24:45;35.97;;;19.50;;
79697;SDS011;69168;42.708;23.286;2024-02-26T05:27:10;33.65;;;20.48;;
79697;SDS011;69168;42.708;23.286;2024-02-26T05:29:37;34.60;;;20.35;;
79697;SDS011;69168;42.708;23.286;2024-02-26T05:32:03;34.72;;;20.55;;
79697;SDS011;69168;42.708;23.286;2024-02-26T05:34:29;34.63;;;19.15;;
79697;SDS011;69168;42.708;23.286;2024-02-26T05:36:55;32.80;;;19.52;;
79697;SDS011;69168;42.708;23.286;2024-02-26T05:39:21;34.58;;;20.10;;
79697;SDS011;69168;42.708;23.286;2024-02-26T05:41:47;36.00;;;19.67;;
79697;SDS011;69168;42.708;23.286;2024-02-26T05:44:12;29.27;;;18.15;;
79697;SDS011;69168;42.708;23.286;2024-02-26T05:46:39;35.17;;;18.83;;
79697;SDS011;69168;42.708;23.286;2024-02-26T05:49:05;36.10;;;20.17;;
79697;SDS011;69168;42.708;23.286;2024-02-26T05:53:58;34.87;;;20.27;;
79697;SDS011;69168;42.708;23.286;2024-02-26T05:56:23;36.40;;;20.92;;
79697;SDS011;69168;42.708;23.286;2024-02-26T05:58:49;36.53;;;21.23;;
79697;SDS011;69168;42.708;23.286;2024-02-26T06:01:16;38.22;;;21.02;;
79697;SDS011;69168;42.708;23.286;2024-02-26T06:03:42;34.90;;;20.90;;
79697;SDS011;69168;42.708;23.286;2024-02-26T06:06:08;37.08;;;21.15;;
79697;SDS011;69168;42.708;23.286;2024-02-26T06:08:33;35.53;;;19.88;;
79697;SDS011;69168;42.708;23.286;2024-02-26T06:10:59;33.95;;;18.75;;
79697;SDS011;69168;42.708;23.286;2024-02-26T06:13:24;36.83;;;21.38;;
79697;SDS011;69168;42.708;23.286;2024-02-26T06:15:50;39.13;;;20.02;;
79697;SDS011;69168;42.708;23.286;2024-02-26T06:18:15;36.60;;;21.20;;
79697;SDS011;69168;42.708;23.286;2024-02-26T06:20:41;31.48;;;19.88;;
79697;SDS011;69168;42.708;23.286;2024-02-26T06:23:06;39.97;;;20.48;;
79697;SDS011;69168;42.708;23.286;2024-02-26T06:25:32;37.47;;;19.67;;
79697;SDS011;69168;42.708;23.286;2024-02-26T06:27:58;28.88;;;17.77;;
79697;SDS011;69168;42.708;23.286;2024-02-26T06:30:23;35.50;;;19.90;;
79697;SDS011;69168;42.708;23.286;2024-02-26T06:32:49;36.30;;;19.45;;
79697;SDS011;69168;42.708;23.286;2024-02-26T06:35:14;32.60;;;18.13;;
79697;SDS011;69168;42.708;23.286;2024-02-26T06:37:40;30.85;;;17.35;;
79697;SDS011;69168;42.708;23.286;2024-02-26T06:40:06;30.25;;;17.73;;
79697;SDS011;69168;42.708;23.286;2024-02-26T06:42:32;33.28;;;20.05;;
79697;SDS011;69168;42.708;23.286;2024-02-26T06:44:58;41.67;;;22.13;;
79697;SDS011;69168;42.708;23.286;2024-02-26T06:47:23;37.65;;;21.65;;
79697;SDS011;69168;42.708;23.286;2024-02-26T06:49:49;34.92;;;20.67;;
79697;SDS011;69168;42.708;23.286;2024-02-26T06:52:14;42.38;;;21.17;;
79697;SDS011;69168;42.708;23.286;2024-02-26T06:54:40;45.90;;;23.00;;
79697;SDS011;69168;42.708;23.286;2024-02-26T06:57:06;46.28;;;22.67;;
79697;SDS011;69168;42.708;23.286;2024-02-26T06:59:32;44.10;;;23.40;;
79697;SDS011;69168;42.708;23.286;2024-02-26T07:01:57;48.15;;;24.27;;
79697;SDS011;69168;42.708;23.286;2024-02-26T07:04:23;45.42;;;23.20;;
79697;SDS011;69168;42.708;23.286;2024-02-26T07:06:48;45.88;;;23.42;;
79697;SDS011;69168;42.708;23.286;2024-02-26T07:09:14;38.20;;;21.17;;
79697;SDS011;69168;42.708;23.286;2024-02-26T07:11:40;38.45;;;21.02;;
79697;SDS011;69168;42.708;23.286;2024-02-26T07:14:09;36.90;;;20.45;;
79697;SDS011;69168;42.708;23.286;2024-02-26T07:16:36;39.92;;;20.48;;
79697;SDS011;69168;42.708;23.286;2024-02-26T07:19:01;37.13;;;20.38;;
79697;SDS011;69168;42.708;23.286;2024-02-26T07:21:27;36.10;;;19.75;;
79697;SDS011;69168;42.708;23.286;2024-02-26T07:23:53;41.65;;;22.33;;
79697;SDS011;69168;42.708;23.286;2024-02-26T07:26:19;48.70;;;28.80;;
79697;SDS011;69168;42.708;23.286;2024-02-26T07:28:44;52.40;;;29.00;;
79697;SDS011;69168;42.708;23.286;2024-02-26T07:31:10;47.67;;;25.35;;
79697;SDS011;69168;42.708;23.286;2024-02-26T07:33:36;48.25;;;22.95;;
79697;SDS011;69168;42.708;23.286;2024-02-26T07:36:01;37.83;;;21.55;;
79697;SDS011;69168;42.708;23.286;2024-02-26T07:38:27;33.30;;;19.35;;
79697;SDS011;69168;42.708;23.286;2024-02-26T07:40:53;33.92;;;18.63;;
79697;SDS011;69168;42.708;23.286;2024-02-26T07:43:18;35.00;;;17.75;;
79697;SDS011;69168;42.708;23.286;2024-02-26T07:45:44;29.20;;;17.15;;
79697;SDS011;69168;42.708;23.286;2024-02-26T07:48:10;31.13;;;17.08;;
79697;SDS011;69168;42.708;23.286;2024-02-26T07:50:37;32.10;;;17.95;;
79697;SDS011;69168;42.708;23.286;2024-02-26T07:53:03;31.27;;;18.85;;
79697;SDS011;69168;42.708;23.286;2024-02-26T07:55:28;33.42;;;19.83;;
79697;SDS011;69168;42.708;23.286;2024-02-26T07:57:54;34.63;;;18.42;;
79697;SDS011;69168;42.708;23.286;2024-02-26T08:00:19;33.10;;;18.05;;
79697;SDS011;69168;42.708;23.286;2024-02-26T08:02:45;33.15;;;18.98;;
79697;SDS011;69168;42.708;23.286;2024-02-26T08:05:12;35.35;;;20.45;;
79697;SDS011;69168;42.708;23.286;2024-02-26T08:07:38;41.92;;;21.60;;
79697;SDS011;69168;42.708;23.286;2024-02-26T08:10:03;41.58;;;21.85;;
79697;SDS011;69168;42.708;23.286;2024-02-26T08:12:29;45.70;;;22.85;;
79697;SDS011;69168;42.708;23.286;2024-02-26T08:14:54;44.15;;;23.08;;
79697;SDS011;69168;42.708;23.286;2024-02-26T08:17:20;46.42;;;24.33;;
79697;SDS011;69168;42.708;23.286;2024-02-26T08:19:46;49.40;;;25.73;;
79697;SDS011;69168;42.708;23.286;2024-02-26T08:22:11;41.72;;;25.10;;
79697;SDS011;69168;42.708;23.286;2024-02-26T08:24:41;43.58;;;25.58;;
79697;SDS011;69168;42.708;23.286;2024-02-26T08:27:07;50.42;;;30.35;;
79697;SDS011;69168;42.708;23.286;2024-02-26T08:29:32;50.08;;;29.17;;
79697;SDS011;69168;42.708;23.286;2024-02-26T08:31:58;52.95;;;30.00;;
79697;SDS011;69168;42.708;23.286;2024-02-26T08:34:24;44.85;;;24.98;;
79697;SDS011;69168;42.708;23.286;2024-02-26T08:36:50;47.47;;;25.25;;
79697;SDS011;69168;42.708;23.286;2024-02-26T08:39:16;42.00;;;24.80;;
79697;SDS011;69168;42.708;23.286;2024-02-26T08:41:43;42.60;;;24.60;;
79697;SDS011;69168;42.708;23.286;2024-02-26T08:44:11;39.65;;;23.20;;
79697;SDS011;69168;42.708;23.286;2024-02-26T08:46:36;41.40;;;21.30;;
79697;SDS011;69168;42.708;23.286;2024-02-26T08:49:02;37.42;;;21.70;;
79697;SDS011;69168;42.708;23.286;2024-02-26T08:51:29;43.03;;;25.25;;
79697;SDS011;69168;42.708;23.286;2024-02-26T08:53:54;54.50;;;27.00;;
79697;SDS011;69168;42.708;23.286;2024-02-26T08:56:20;42.85;;;24.48;;
79697;SDS011;69168;42.708;23.286;2024-02-26T08:58:46;42.58;;;23.90;;
79697;SDS011;69168;42.708;23.286;2024-02-26T09:01:16;43.83;;;24.10;;
79697;SDS011;69168;42.708;23.286;2024-02-26T09:03:42;46.80;;;27.38;;
79697;SDS011;69168;42.708;23.286;2024-02-26T09:06:08;48.58;;;24.80;;
79697;SDS011;69168;42.708;23.286;2024-02-26T09:08:34;42.35;;;22.92;;
79697;SDS011;69168;42.708;23.286;2024-02-26T09:11:01;43.38;;;22.90;;
79697;SDS011;69168;42.708;23.286;2024-02-26T09:13:26;44.00;;;26.08;;
79697;SDS011;69168;42.708;23.286;2024-02-26T09:15:52;43.60;;;23.05;;
79697;SDS011;69168;42.708;23.286;2024-02-26T09:18:18;50.40;;;23.20;;
79697;SDS011;69168;42.708;23.286;2024-02-26T09:20:43;45.00;;;23.20;;
79697;SDS011;69168;42.708;23.286;2024-02-26T09:23:09;38.75;;;21.88;;
79697;SDS011;69168;42.708;23.286;2024-02-26T09:25:34;38.55;;;21.85;;
79697;SDS011;69168;42.708;23.286;2024-02-26T09:28:00;32.53;;;18.67;;
79697;SDS011;69168;42.708;23.286;2024-02-26T09:30:26;36.08;;;17.65;;
79697;SDS011;69168;42.708;23.286;2024-02-26T09:32:52;25.63;;;15.07;;
79697;SDS011;69168;42.708;23.286;2024-02-26T09:35:17;25.02;;;15.05;;
79697;SDS011;69168;42.708;23.286;2024-02-26T09:37:43;20.45;;;13.82;;
79697;SDS011;69168;42.708;23.286;2024-02-26T09:40:09;25.08;;;15.00;;
79697;SDS011;69168;42.708;23.286;2024-02-26T09:42:43;19.75;;;11.43;;
79697;SDS011;69168;42.708;23.286;2024-02-26T09:45:10;17.85;;;10.30;;
79697;SDS011;69168;42.708;23.286;2024-02-26T09:47:44;20.30;;;10.20;;
79697;SDS011;69168;42.708;23.286;2024-02-26T09:50:12;18.65;;;10.05;;
79697;SDS011;69168;42.708;23.286;2024-02-26T09:52:41;10.73;;;7.63;;
79697;SDS011;69168;42.708;23.286;2024-02-26T09:55:07;11.02;;;6.80;;
79697;SDS011;69168;42.708;23.286;2024-02-26T09:57:37;9.63;;;6.35;;
79697;SDS011;69168;42.708;23.286;2024-02-26T10:00:03;12.05;;;6.55;;
79697;SDS011;69168;42.708;23.286;2024-02-26T10:02:33;14.85;;;8.07;;
79697;SDS011;69168;42.708;23.286;2024-02-26T10:05:02;8.50;;;5.90;;
79697;SDS011;69168;42.708;23.286;2024-02-26T10:07:31;11.20;;;6.32;;
79697;SDS011;69168;42.708;23.286;2024-02-26T10:09:57;8.27;;;5.88;;
79697;SDS011;69168;42.708;23.286;2024-02-26T10:12:22;10.57;;;6.07;;
79697;SDS011;69168;42.708;23.286;2024-02-26T10:14:51;10.40;;;6.60;;
79697;SDS011;69168;42.708;23.286;2024-02-26T10:17:17;13.93;;;7.55;;
79697;SDS011;69168;42.708;23.286;2024-02-26T10:19:45;9.95;;;6.40;;
79697;SDS011;69168;42.708;23.286;2024-02-26T10:22:10;10.25;;;6.35;;
79697;SDS011;69168;42.708;23.286;2024-02-26T10:24:36;6.65;;;4.93;;
79697;SDS011;69168;42.708;23.286;2024-02-26T10:27:02;8.18;;;5.55;;
79697;SDS011;69168;42.708;23.286;2024-02-26T10:29:28;11.65;;;6.15;;
79697;SDS011;69168;42.708;23.286;2024-02-26T10:31:53;7.88;;;5.82;;
79697;SDS011;69168;42.708;23.286;2024-02-26T10:34:19;8.65;;;5.07;;
79697;SDS011;69168;42.708;23.286;2024-02-26T10:36:45;9.35;;;6.88;;
79697;SDS011;69168;42.708;23.286;2024-02-26T10:39:13;8.88;;;5.18;;
79697;SDS011;69168;42.708;23.286;2024-02-26T10:41:40;9.48;;;6.03;;
79697;SDS011;69168;42.708;23.286;2024-02-26T10:44:08;9.55;;;5.60;;
79697;SDS011;69168;42.708;23.286;2024-02-26T10:46:38;9.60;;;5.43;;
79697;SDS011;69168;42.708;23.286;2024-02-26T10:49:05;9.30;;;4.72;;
79697;SDS011;69168;42.708;23.286;2024-02-26T10:51:32;9.75;;;4.97;;
79697;SDS011;69168;42.708;23.286;2024-02-26T10:54:02;6.85;;;4.43;;
79697;SDS011;69168;42.708;23.286;2024-02-26T10:56:33;7.03;;;4.93;;
79697;SDS011;69168;42.708;23.286;2024-02-26T10:58:59;7.50;;;4.75;;
79697;SDS011;69168;42.708;23.286;2024-02-26T11:01:27;6.95;;;4.80;;
79697;SDS011;69168;42.708;23.286;2024-02-26T11:03:57;8.45;;;4.93;;
79697;SDS011;69168;42.708;23.286;2024-02-26T11:06:23;8.00;;;5.15;;
79697;SDS011;69168;42.708;23.286;2024-02-26T11:08:51;8.70;;;4.97;;
79697;SDS011;69168;42.708;23.286;2024-02-26T11:11:18;9.57;;;4.93;;
79697;SDS011;69168;42.708;23.286;2024-02-26T11:13:46;7.88;;;4.85;;
79697;SDS011;69168;42.708;23.286;2024-02-26T11:16:15;9.18;;;5.20;;
79697;SDS011;69168;42.708;23.286;2024-02-26T11:18:43;7.30;;;5.43;;
79697;SDS011;69168;42.708;23.286;2024-02-26T11:21:13;8.23;;;4.78;;
79697;SDS011;69168;42.708;23.286;2024-02-26T11:23:41;7.75;;;5.28;;
79697;SDS011;69168;42.708;23.286;2024-02-26T11:26:07;7.63;;;4.40;;
79697;SDS011;69168;42.708;23.286;2024-02-26T11:28:34;6.13;;;4.63;;
79697;SDS011;69168;42.708;23.286;2024-02-26T11:31:02;6.47;;;5.05;;
79697;SDS011;69168;42.708;23.286;2024-02-26T11:33:29;10.40;;;4.85;;
79697;SDS011;69168;42.708;23.286;2024-02-26T11:35:55;10.88;;;4.40;;
79697;SDS011;69168;42.708;23.286;2024-02-26T11:38:21;9.13;;;5.25;;
79697;SDS011;69168;42.708;23.286;2024-02-26T11:40:49;8.40;;;5.00;;
79697;SDS011;69168;42.708;23.286;2024-02-26T11:43:18;7.25;;;4.85;;
79697;SDS011;69168;42.708;23.286;2024-02-26T11:45:48;7.15;;;4.30;;
79697;SDS011;69168;42.708;23.286;2024-02-26T11:48:20;5.65;;;4.55;;
79697;SDS011;69168;42.708;23.286;2024-02-26T11:50:50;6.72;;;4.60;;
79697;SDS011;69168;42.708;23.286;2024-02-26T11:58:39;9.70;;;5.78;;
79697;SDS011;69168;42.708;23.286;2024-02-26T12:01:05;6.97;;;4.55;;
79697;SDS011;69168;42.708;23.286;2024-02-26T12:03:31;7.80;;;4.70;;
79697;SDS011;69168;42.708;23.286;2024-02-26T12:05:56;10.73;;;6.22;;
79697;SDS011;69168;42.708;23.286;2024-02-26T12:08:22;7.50;;;4.45;;
79697;SDS011;69168;42.708;23.286;2024-02-26T12:10:50;6.38;;;4.88;;
79697;SDS011;69168;42.708;23.286;2024-02-26T12:13:20;5.28;;;3.97;;
79697;SDS011;69168;42.708;23.286;2024-02-26T12:15:56;7.35;;;3.95;;
79697;SDS011;69168;42.708;23.286;2024-02-26T12:18:23;7.45;;;4.25;;
79697;SDS011;69168;42.708;23.286;2024-02-26T12:21:01;8.77;;;4.57;;
79697;SDS011;69168;42.708;23.286;2024-02-26T12:23:27;6.00;;;3.63;;
79697;SDS011;69168;42.708;23.286;2024-02-26T12:25:54;4.47;;;3.53;;
79697;SDS011;69168;42.708;23.286;2024-02-26T12:28:29;3.85;;;3.40;;
79697;SDS011;69168;42.708;23.286;2024-02-26T12:30:55;6.45;;;3.63;;
79697;SDS011;69168;42.708;23.286;2024-02-26T12:33:24;6.13;;;4.13;;
79697;SDS011;69168;42.708;23.286;2024-02-26T12:35:51;7.93;;;3.50;;
79697;SDS011;69168;42.708;23.286;2024-02-26T12:38:17;5.15;;;3.42;;
79697;SDS011;69168;42.708;23.286;2024-02-26T12:40:44;6.40;;;3.22;;
79697;SDS011;69168;42.708;23.286;2024-02-26T12:43:10;6.30;;;3.63;;
79697;SDS011;69168;42.708;23.286;2024-02-26T12:45:40;6.65;;;3.58;;
79697;SDS011;69168;42.708;23.286;2024-02-26T12:48:06;9.35;;;4.53;;
79697;SDS011;69168;42.708;23.286;2024-02-26T12:50:32;5.40;;;3.35;;
79697;SDS011;69168;42.708;23.286;2024-02-26T12:52:58;5.50;;;3.42;;
79697;SDS011;69168;42.708;23.286;2024-02-26T12:55:24;4.82;;;3.20;;
79697;SDS011;69168;42.708;23.286;2024-02-26T12:57:51;7.20;;;3.53;;
79697;SDS011;69168;42.708;23.286;2024-02-26T13:00:18;8.05;;;3.47;;
79697;SDS011;69168;42.708;23.286;2024-02-26T13:02:47;5.97;;;3.33;;
79697;SDS011;69168;42.708;23.286;2024-02-26T13:05:14;6.43;;;3.88;;
79697;SDS011;69168;42.708;23.286;2024-02-26T13:07:41;6.18;;;4.50;;
79697;SDS011;69168;42.708;23.286;2024-02-26T13:10:12;7.75;;;3.88;;
79697;SDS011;69168;42.708;23.286;2024-02-26T13:12:45;6.65;;;3.67;;
79697;SDS011;69168;42.708;23.286;2024-02-26T13:17:40;9.57;;;4.18;;
79697;SDS011;69168;42.708;23.286;2024-02-26T13:20:08;7.22;;;3.97;;
79697;SDS011;69168;42.708;23.286;2024-02-26T13:22:35;9.13;;;3.78;;
79697;SDS011;69168;42.708;23.286;2024-02-26T13:25:01;5.80;;;3.38;;
79697;SDS011;69168;42.708;23.286;2024-02-26T13:27:28;5.72;;;3.42;;
79697;SDS011;69168;42.708;23.286;2024-02-26T13:30:08;7.95;;;3.75;;
79697;SDS011;69168;42.708;23.286;2024-02-26T13:32:39;5.72;;;3.25;;
79697;SDS011;69168;42.708;23.286;2024-02-26T13:37:31;8.05;;;4.97;;
79697;SDS011;69168;42.708;23.286;2024-02-26T13:39:57;8.07;;;4.93;;
79697;SDS011;69168;42.708;23.286;2024-02-26T13:42:22;7.43;;;3.88;;
79697;SDS011;69168;42.708;23.286;2024-02-26T13:44:48;5.60;;;3.67;;
79697;SDS011;69168;42.708;23.286;2024-02-26T13:47:14;6.75;;;3.63;;
79697;SDS011;69168;42.708;23.286;2024-02-26T13:49:39;4.20;;;3.10;;
79697;SDS011;69168;42.708;23.286;2024-02-26T13:52:05;5.80;;;3.90;;
79697;SDS011;69168;42.708;23.286;2024-02-26T13:54:30;8.57;;;4.13;;
79697;SDS011;69168;42.708;23.286;2024-02-26T13:56:56;6.22;;;3.83;;
79697;SDS011;69168;42.708;23.286;2024-02-26T13:59:22;5.05;;;3.58;;
79697;SDS011;69168;42.708;23.286;2024-02-26T14:01:47;4.65;;;3.20;;
79697;SDS011;69168;42.708;23.286;2024-02-26T14:04:13;6.03;;;2.95;;
79697;SDS011;69168;42.708;23.286;2024-02-26T14:06:38;5.43;;;3.42;;
79697;SDS011;69168;42.708;23.286;2024-02-26T14:09:04;6.78;;;3.88;;
79697;SDS011;69168;42.708;23.286;2024-02-26T14:11:30;7.80;;;3.80;;
79697;SDS011;69168;42.708;23.286;2024-02-26T14:13:56;15.05;;;5.45;;
79697;SDS011;69168;42.708;23.286;2024-02-26T14:16:22;8.52;;;5.13;;
79697;SDS011;69168;42.708;23.286;2024-02-26T14:18:47;10.10;;;4.47;;
79697;SDS011;69168;42.708;23.286;2024-02-26T14:21:13;5.57;;;3.22;;
79697;SDS011;69168;42.708;23.286;2024-02-26T14:23:38;8.65;;;4.72;;
79697;SDS011;69168;42.708;23.286;2024-02-26T14:26:04;9.13;;;4.40;;